| time (UTC) | temp C | wind direction | speed KPH | gust KPH | rain 1hr cm | rain 24hr cm | rain mn cm | humidity % | barometer mb |
| 20260508035832 | 12 | 61 | 0.0 | 1.6 | 0.00 | 0.00 | 0.00 | 61 | 1013.0 |
| 20260508035324 | 11 | 61 | 1.6 | 1.6 | 0.00 | 0.00 | 0.00 | 62 | 1013.1 |
| 20260508034821 | 12 | 63 | 0.0 | 0.0 | 0.00 | 0.00 | 0.00 | 62 | 1012.8 |
| 20260508034318 | 11 | 62 | 0.0 | 0.0 | 0.00 | 0.00 | 0.00 | 62 | 1012.8 |
| 20260508033815 | 12 | 60 | 0.0 | 0.0 | 0.00 | 0.00 | 0.00 | 63 | 1012.8 |
| 20260508033313 | 12 | 60 | 0.0 | 0.0 | 0.00 | 0.00 | 0.00 | 60 | 1012.6 |
| 20260508032810 | 13 | 61 | 0.0 | 0.0 | 0.00 | 0.00 | 0.00 | 56 | 1012.6 |
| 20260508032308 | 13 | 62 | 0.0 | 0.0 | 0.00 | 0.00 | 0.00 | 55 | 1012.4 |
| 20260508031804 | 13 | 63 | 0.0 | 0.0 | 0.00 | 0.00 | 0.00 | 55 | 1012.3 |
| 20260508031301 | 14 | 61 | 0.0 | 0.0 | 0.00 | 0.00 | 0.00 | 54 | 1012.3 |
| 20260508030757 | 15 | 63 | 0.0 | 0.0 | 0.00 | 0.00 | 0.00 | 53 | 1012.1 |
| 20260508030255 | 15 | 61 | 0.0 | 0.0 | 0.00 | 0.00 | 0.00 | 52 | 1012.0 |
| 20260508025751 | 16 | 62 | 0.0 | 0.0 | 0.00 | 0.00 | 0.00 | 51 | 1012.3 |
| 20260508025248 | 16 | 58 | 0.0 | 1.6 | 0.00 | 0.00 | 0.00 | 49 | 1012.3 |
| 20260508024744 | 18 | 59 | 1.6 | 1.6 | 0.00 | 0.00 | 0.00 | 44 | 1012.3 |
| 20260508024241 | 18 | 64 | 1.6 | 1.6 | 0.00 | 0.00 | 0.00 | 42 | 1011.9 |
| 20260508023738 | 18 | 45 | 0.0 | 1.6 | 0.00 | 0.00 | 0.00 | 41 | 1012.1 |
| 20260508023236 | 18 | 69 | 1.6 | 3.2 | 0.00 | 0.00 | 0.00 | 41 | 1012.2 |
| 20260508022731 | 18 | 62 | 0.0 | 0.0 | 0.00 | 0.00 | 0.00 | 43 | 1012.0 |
| 20260508022228 | 19 | 210 | 4.8 | 4.8 | 0.00 | 0.00 | 0.00 | 40 | 1011.9 |
| 20260508021725 | 20 | 221 | 6.4 | 9.7 | 0.00 | 0.00 | 0.00 | 39 | 1012.0 |
| 20260508021220 | 20 | 225 | 6.4 | 8.0 | 0.00 | 0.00 | 0.00 | 39 | 1012.1 |
| 20260508020718 | 20 | 85 | 4.8 | 4.8 | 0.00 | 0.00 | 0.00 | 37 | 1011.9 |
| 20260508020215 | 20 | 255 | 4.8 | 4.8 | 0.00 | 0.00 | 0.00 | 37 | 1011.8 |
| 20260508015712 | 20 | 90 | 3.2 | 3.2 | 0.00 | 0.00 | 0.00 | 36 | 1011.8 |
| 20260508015209 | 20 | 253 | 4.8 | 4.8 | 0.00 | 0.00 | 0.00 | 38 | 1011.8 |
| 20260508014706 | 21 | 276 | 6.4 | 8.0 | 0.00 | 0.00 | 0.00 | 35 | 1011.7 |
| 20260508014202 | 21 | 260 | 4.8 | 8.0 | 0.00 | 0.00 | 0.00 | 36 | 1011.8 |
| 20260508013658 | 21 | 137 | 4.8 | 8.0 | 0.00 | 0.00 | 0.00 | 37 | 1011.7 |
| 20260508013155 | 21 | 155 | 4.8 | 4.8 | 0.00 | 0.00 | 0.00 | 37 | 1011.7 |
| 20260508012653 | 21 | 75 | 4.8 | 8.0 | 0.00 | 0.00 | 0.00 | 35 | 1011.5 |
| 20260508012149 | 21 | 125 | 3.2 | 4.8 | 0.00 | 0.00 | 0.00 | 34 | 1011.9 |
| 20260508011648 | 21 | 228 | 4.8 | 4.8 | 0.00 | 0.00 | 0.00 | 35 | 1011.5 |
| 20260508011145 | 21 | 158 | 4.8 | 4.8 | 0.00 | 0.00 | 0.00 | 35 | 1011.8 |
| 20260508010641 | 21 | 135 | 4.8 | 8.0 | 0.00 | 0.00 | 0.00 | 33 | 1011.8 |
| 20260508010139 | 22 | 222 | 9.7 | 11.3 | 0.00 | 0.00 | 0.00 | 33 | 1011.8 |
| 20260508005636 | 22 | 241 | 8.0 | 11.3 | 0.00 | 0.00 | 0.00 | 32 | 1011.8 |
| 20260508005133 | 22 | 279 | 4.8 | 8.0 | 0.00 | 0.00 | 0.00 | 32 | 1011.7 |
| 20260508004628 | 22 | 217 | 9.7 | 12.9 | 0.00 | 0.00 | 0.00 | 32 | 1011.9 |
| 20260508004125 | 22 | 190 | 6.4 | 9.7 | 0.00 | 0.00 | 0.00 | 31 | 1011.5 |
| 20260508003621 | 23 | 252 | 6.4 | 9.7 | 0.00 | 0.00 | 0.00 | 31 | 1011.7 |
| 20260508003119 | 23 | 352 | 6.4 | 8.0 | 0.00 | 0.00 | 0.00 | 29 | 1011.5 |
| 20260508002616 | 23 | 97 | 8.0 | 9.7 | 0.00 | 0.00 | 0.00 | 29 | 1011.5 |
| 20260508002114 | 23 | 299 | 3.2 | 3.2 | 0.00 | 0.00 | 0.00 | 30 | 1011.5 |
| 20260508001608 | 23 | 94 | 4.8 | 9.7 | 0.00 | 0.00 | 0.00 | 30 | 1011.4 |
| 20260508001105 | 23 | 165 | 6.4 | 8.0 | 0.00 | 0.00 | 0.00 | 31 | 1011.5 |
| 20260508000601 | 23 | 31 | 6.4 | 9.7 | 0.00 | 0.00 | 0.00 | 31 | 1011.7 |
| 20260508000058 | 23 | 177 | 8.0 | 9.7 | 0.00 | 0.00 | 0.00 | 30 | 1011.4 |
| 20260507235555 | 23 | 127 | 9.7 | 16.1 | 0.00 | 0.00 | 0.00 | 31 | 1011.4 |
| 20260507235052 | 23 | 94 | 6.4 | 9.7 | 0.00 | 0.00 | 0.00 | 31 | 1011.5 |
| 20260507234548 | 23 | 234 | 8.0 | 11.3 | 0.00 | 0.00 | 0.00 | 31 | 1011.7 |
| 20260507234045 | 23 | 319 | 8.0 | 11.3 | 0.00 | 0.00 | 0.00 | 30 | 1011.9 |
| 20260507233542 | 23 | 227 | 8.0 | 9.7 | 0.00 | 0.00 | 0.00 | 32 | 1011.7 |
| 20260507233041 | 24 | 246 | 6.4 | 9.7 | 0.00 | 0.00 | 0.00 | 31 | 1011.7 |
| 20260507232536 | 23 | 79 | 4.8 | 8.0 | 0.00 | 0.00 | 0.00 | 33 | 1011.4 |
| 20260507232034 | 23 | 116 | 4.8 | 8.0 | 0.00 | 0.00 | 0.00 | 32 | 1011.5 |
| 20260507231530 | 23 | 69 | 3.2 | 3.2 | 0.00 | 0.00 | 0.00 | 32 | 1011.5 |
| 20260507231028 | 23 | 233 | 6.4 | 8.0 | 0.00 | 0.00 | 0.00 | 33 | 1011.7 |
| 20260507230524 | 23 | 273 | 6.4 | 11.3 | 0.00 | 0.00 | 0.00 | 30 | 1011.5 |
| 20260507230021 | 24 | 81 | 4.8 | 4.8 | 0.00 | 0.00 | 0.00 | 31 | 1011.7 |
| 20260507225516 | 23 | 80 | 3.2 | 4.8 | 0.00 | 0.00 | 0.00 | 34 | 1011.9 |
| 20260507225012 | 22 | 278 | 3.2 | 3.2 | 0.00 | 0.00 | 0.00 | 32 | 1011.5 |
| 20260507224508 | 22 | 333 | 6.4 | 9.7 | 0.00 | 0.00 | 0.00 | 34 | 1011.8 |
| 20260507224005 | 21 | 106 | 3.2 | 4.8 | 0.00 | 0.00 | 0.00 | 36 | 1012.0 |
| 20260507223501 | 22 | 149 | 8.0 | 9.7 | 0.00 | 0.00 | 0.00 | 33 | 1012.0 |
| 20260507222958 | 23 | 157 | 8.0 | 12.9 | 0.00 | 0.00 | 0.00 | 30 | 1011.9 |
| 20260507222455 | 24 | 205 | 8.0 | 11.3 | 0.00 | 0.00 | 0.00 | 31 | 1011.7 |
| 20260507221951 | 24 | 1 | 3.2 | 4.8 | 0.00 | 0.00 | 0.00 | 32 | 1011.9 |
| 20260507221448 | 23 | 72 | 6.4 | 9.7 | 0.00 | 0.00 | 0.00 | 30 | 1011.9 |
| 20260507220945 | 24 | 73 | 4.8 | 4.8 | 0.00 | 0.00 | 0.00 | 34 | 1011.9 |
| 20260507220442 | 24 | 113 | 4.8 | 8.0 | 0.00 | 0.00 | 0.00 | 31 | 1011.8 |
| 20260507215938 | 23 | 85 | 1.6 | 3.2 | 0.00 | 0.00 | 0.00 | 32 | 1011.9 |
| 20260507215430 | 23 | 79 | 4.8 | 9.7 | 0.00 | 0.00 | 0.00 | 30 | 1012.0 |
| 20260507214927 | 23 | 356 | 3.2 | 3.2 | 0.00 | 0.00 | 0.00 | 29 | 1012.1 |
| 20260507214425 | 22 | 60 | 3.2 | 4.8 | 0.00 | 0.00 | 0.00 | 32 | 1012.2 |
| 20260507213920 | 23 | 184 | 4.8 | 8.0 | 0.00 | 0.00 | 0.00 | 32 | 1011.9 |
| 20260507213417 | 24 | 60 | 3.2 | 3.2 | 0.00 | 0.00 | 0.00 | 33 | 1012.0 |
| 20260507212914 | 23 | 239 | 3.2 | 8.0 | 0.00 | 0.00 | 0.00 | 35 | 1012.2 |
| 20260507212409 | 22 | 209 | 4.8 | 4.8 | 0.00 | 0.00 | 0.00 | 31 | 1012.5 |
| 20260507211906 | 22 | 359 | 3.2 | 3.2 | 0.00 | 0.00 | 0.00 | 34 | 1012.3 |
| 20260507211403 | 22 | 67 | 1.6 | 1.6 | 0.00 | 0.00 | 0.00 | 33 | 1012.6 |
| 20260507210900 | 21 | 64 | 1.6 | 1.6 | 0.00 | 0.00 | 0.00 | 36 | 1012.5 |
| 20260507210356 | 22 | 221 | 4.8 | 8.0 | 0.00 | 0.00 | 0.00 | 35 | 1012.3 |
| 20260507205853 | 22 | 104 | 6.4 | 8.0 | 0.00 | 0.00 | 0.00 | 34 | 1012.5 |
| 20260507205350 | 21 | 92 | 8.0 | 11.3 | 0.00 | 0.00 | 0.00 | 36 | 1012.6 |
| 20260507204846 | 20 | 50 | 8.0 | 9.7 | 0.00 | 0.00 | 0.00 | 36 | 1012.4 |
| 20260507204343 | 21 | 39 | 9.7 | 12.9 | 0.00 | 0.00 | 0.00 | 38 | 1012.5 |
| 20260507203841 | 21 | 73 | 6.4 | 8.0 | 0.00 | 0.00 | 0.00 | 38 | 1012.5 |
| 20260507203339 | 23 | 37 | 4.8 | 4.8 | 0.00 | 0.00 | 0.00 | 33 | 1012.6 |
| 20260507202835 | 22 | 70 | 1.6 | 1.6 | 0.00 | 0.00 | 0.00 | 36 | 1012.6 |
| 20260507202331 | 22 | 246 | 8.0 | 11.3 | 0.00 | 0.00 | 0.00 | 35 | 1012.8 |
| 20260507201827 | 21 | 278 | 4.8 | 9.7 | 0.00 | 0.00 | 0.00 | 37 | 1012.8 |
| 20260507201323 | 22 | 175 | 4.8 | 8.0 | 0.00 | 0.00 | 0.00 | 34 | 1012.8 |
| 20260507200819 | 21 | 42 | 0.0 | 1.6 | 0.00 | 0.00 | 0.00 | 37 | 1012.6 |
| 20260507200315 | 20 | 238 | 4.8 | 4.8 | 0.00 | 0.00 | 0.00 | 37 | 1012.8 |
| 20260507195811 | 20 | 59 | 4.8 | 4.8 | 0.00 | 0.00 | 0.00 | 39 | 1013.0 |
| 20260507195309 | 21 | 63 | 4.8 | 4.8 | 0.00 | 0.00 | 0.00 | 38 | 1012.8 |
| 20260507194806 | 21 | 71 | 1.6 | 1.6 | 0.00 | 0.00 | 0.00 | 39 | 1013.0 |
| 20260507194302 | 21 | 65 | 0.0 | 1.6 | 0.00 | 0.00 | 0.00 | 41 | 1012.9 |
| 20260507193759 | 20 | 68 | 4.8 | 8.0 | 0.00 | 0.00 | 0.00 | 40 | 1013.0 |
| 20260507193256 | 21 | 67 | 6.4 | 9.7 | 0.00 | 0.00 | 0.00 | 40 | 1013.1 |
| 20260507192751 | 20 | 81 | 4.8 | 8.0 | 0.00 | 0.00 | 0.00 | 39 | 1013.2 |
| 20260507192249 | 21 | 68 | 0.0 | 0.0 | 0.00 | 0.00 | 0.00 | 38 | 1013.1 |
| 20260507191745 | 21 | 74 | 3.2 | 3.2 | 0.00 | 0.00 | 0.00 | 37 | 1013.3 |
| 20260507191242 | 21 | 64 | 1.6 | 3.2 | 0.00 | 0.00 | 0.00 | 39 | 1013.2 |
| 20260507190738 | 21 | 71 | 1.6 | 3.2 | 0.00 | 0.00 | 0.00 | 39 | 1013.2 |
| 20260507190237 | 20 | 113 | 1.6 | 1.6 | 0.00 | 0.00 | 0.00 | 39 | 1013.3 |
| 20260507185735 | 20 | 31 | 1.6 | 1.6 | 0.00 | 0.00 | 0.00 | 41 | 1013.1 |
| 20260507185231 | 20 | 95 | 1.6 | 3.2 | 0.00 | 0.00 | 0.00 | 41 | 1013.2 |
| 20260507184729 | 21 | 57 | 1.6 | 1.6 | 0.00 | 0.00 | 0.00 | 41 | 1013.1 |
| 20260507184227 | 21 | 59 | 0.0 | 0.0 | 0.00 | 0.00 | 0.00 | 38 | 1013.0 |
| 20260507183723 | 20 | 54 | 4.8 | 8.0 | 0.00 | 0.00 | 0.00 | 40 | 1013.2 |
| 20260507183220 | 21 | 59 | 4.8 | 8.0 | 0.00 | 0.00 | 0.00 | 39 | 1013.2 |
| 20260507182717 | 21 | 128 | 4.8 | 4.8 | 0.00 | 0.00 | 0.00 | 40 | 1013.0 |
| 20260507182207 | 20 | 68 | 1.6 | 1.6 | 0.00 | 0.00 | 0.00 | 39 | 1013.3 |
| 20260507181704 | 19 | 243 | 4.8 | 4.8 | 0.00 | 0.00 | 0.00 | 41 | 1013.3 |
| 20260507181200 | 19 | 60 | 8.0 | 11.3 | 0.00 | 0.00 | 0.00 | 45 | 1013.3 |
| 20260507180651 | 20 | 45 | 1.6 | 1.6 | 0.00 | 0.00 | 0.00 | 40 | 1013.3 |
| 20260507180148 | 20 | 63 | 3.2 | 4.8 | 0.00 | 0.00 | 0.00 | 42 | 1013.3 |
| 20260507175643 | 18 | 133 | 3.2 | 4.8 | 0.00 | 0.00 | 0.00 | 42 | 1013.4 |
| 20260507175141 | 19 | 72 | 6.4 | 8.0 | 0.00 | 0.00 | 0.00 | 42 | 1013.4 |
| 20260507174638 | 20 | 60 | 6.4 | 8.0 | 0.00 | 0.00 | 0.00 | 44 | 1013.6 |
| 20260507174136 | 19 | 51 | 3.2 | 3.2 | 0.00 | 0.00 | 0.00 | 42 | 1013.6 |
| 20260507173633 | 20 | 40 | 8.0 | 9.7 | 0.00 | 0.00 | 0.00 | 41 | 1013.7 |
| 20260507173130 | 18 | 47 | 1.6 | 1.6 | 0.00 | 0.00 | 0.00 | 44 | 1013.7 |
| 20260507172626 | 18 | 43 | 4.8 | 8.0 | 0.00 | 0.00 | 0.00 | 43 | 1014.1 |
| 20260507172124 | 18 | 49 | 6.4 | 8.0 | 0.00 | 0.00 | 0.00 | 43 | 1013.9 |
| 20260507171618 | 18 | 96 | 3.2 | 4.8 | 0.00 | 0.00 | 0.00 | 43 | 1014.1 |
| 20260507171116 | 18 | 168 | 6.4 | 8.0 | 0.00 | 0.00 | 0.00 | 43 | 1014.0 |
| 20260507170613 | 18 | 65 | 1.6 | 1.6 | 0.00 | 0.00 | 0.00 | 45 | 1014.0 |
| 20260507170110 | 17 | 72 | 1.6 | 1.6 | 0.00 | 0.00 | 0.00 | 47 | 1014.1 |
| 20260507165605 | 18 | 67 | 8.0 | 9.7 | 0.00 | 0.00 | 0.00 | 48 | 1014.0 |
| 20260507165102 | 17 | 47 | 0.0 | 1.6 | 0.00 | 0.00 | 0.00 | 45 | 1014.2 |
| 20260507164558 | 17 | 40 | 3.2 | 3.2 | 0.00 | 0.00 | 0.00 | 48 | 1014.0 |
| 20260507164055 | 16 | 42 | 3.2 | 4.8 | 0.00 | 0.00 | 0.00 | 51 | 1014.1 |
| 20260507163552 | 17 | 54 | 4.8 | 8.0 | 0.00 | 0.00 | 0.00 | 49 | 1014.2 |
| 20260507163045 | 16 | 44 | 6.4 | 8.0 | 0.00 | 0.00 | 0.00 | 52 | 1014.1 |
| 20260507162544 | 17 | 60 | 0.0 | 0.0 | 0.00 | 0.00 | 0.00 | 60 | 1014.1 |
| 20260507162041 | 16 | 43 | 6.4 | 8.0 | 0.00 | 0.00 | 0.00 | 59 | 1014.0 |
| 20260507161539 | 16 | 42 | 4.8 | 4.8 | 0.00 | 0.00 | 0.00 | 60 | 1014.3 |
| 20260507161029 | 16 | 46 | 4.8 | 4.8 | 0.00 | 0.00 | 0.00 | 59 | 1014.2 |
| 20260507160525 | 16 | 81 | 1.6 | 1.6 | 0.00 | 0.00 | 0.00 | 61 | 1014.3 |
| 20260507160022 | 16 | 127 | 1.6 | 3.2 | 0.00 | 0.00 | 0.00 | 62 | 1014.1 |
| 20260507155517 | 16 | 92 | 1.6 | 3.2 | 0.00 | 0.00 | 0.00 | 62 | 1014.2 |
| 20260507155014 | 15 | 55 | 0.0 | 0.0 | 0.00 | 0.00 | 0.00 | 66 | 1014.1 |
| 20260507154511 | 15 | 63 | 0.0 | 0.0 | 0.00 | 0.00 | 0.00 | 64 | 1014.3 |
| 20260507154009 | 14 | 58 | 0.0 | 0.0 | 0.00 | 0.00 | 0.00 | 67 | 1014.3 |
| 20260507153505 | 14 | 63 | 3.2 | 3.2 | 0.00 | 0.00 | 0.00 | 69 | 1014.2 |
| 20260507153001 | 15 | 245 | 4.8 | 4.8 | 0.00 | 0.00 | 0.00 | 68 | 1014.2 |
| 20260507152457 | 15 | 27 | 3.2 | 3.2 | 0.00 | 0.00 | 0.00 | 65 | 1014.4 |
| 20260507151954 | 15 | 47 | 3.2 | 3.2 | 0.00 | 0.00 | 0.00 | 68 | 1014.2 |
| 20260507151450 | 14 | 77 | 3.2 | 3.2 | 0.00 | 0.00 | 0.00 | 69 | 1014.1 |
| 20260507150947 | 13 | 60 | 0.0 | 0.0 | 0.00 | 0.00 | 0.00 | 70 | 1014.4 |
| 20260507150443 | 12 | 82 | 4.8 | 4.8 | 0.00 | 0.00 | 0.00 | 74 | 1014.4 |
| 20260507145940 | 12 | 59 | 1.6 | 3.2 | 0.00 | 0.00 | 0.00 | 73 | 1014.4 |
| 20260507145436 | 12 | 68 | 1.6 | 1.6 | 0.00 | 0.00 | 0.00 | 74 | 1014.3 |
| 20260507144933 | 12 | 63 | 0.0 | 0.0 | 0.00 | 0.00 | 0.00 | 75 | 1014.2 |
| 20260507144430 | 11 | 67 | 0.0 | 1.6 | 0.00 | 0.00 | 0.00 | 76 | 1014.2 |
| 20260507143927 | 11 | 263 | 3.2 | 3.2 | 0.00 | 0.00 | 0.00 | 74 | 1013.9 |
| 20260507143424 | 11 | 62 | 0.0 | 0.0 | 0.00 | 0.00 | 0.00 | 76 | 1014.2 |
| 20260507142921 | 11 | 112 | 4.8 | 4.8 | 0.00 | 0.00 | 0.00 | 77 | 1013.9 |
| 20260507142416 | 11 | 58 | 1.6 | 1.6 | 0.00 | 0.00 | 0.00 | 78 | 1014.1 |
| 20260507141914 | 11 | 60 | 0.0 | 0.0 | 0.00 | 0.00 | 0.00 | 77 | 1014.2 |
| 20260507141410 | 11 | 129 | 4.8 | 8.0 | 0.00 | 0.00 | 0.00 | 78 | 1013.7 |
| 20260507140907 | 10 | 59 | 0.0 | 0.0 | 0.00 | 0.00 | 0.00 | 79 | 1013.5 |
| 20260507140403 | 10 | 57 | 3.2 | 3.2 | 0.00 | 0.00 | 0.00 | 78 | 1013.4 |
| 20260507135901 | 10 | 59 | 1.6 | 1.6 | 0.00 | 0.00 | 0.00 | 79 | 1013.6 |
| 20260507135358 | 10 | 50 | 4.8 | 4.8 | 0.00 | 0.00 | 0.00 | 79 | 1013.4 |
| 20260507134855 | 9 | 61 | 4.8 | 4.8 | 0.00 | 0.00 | 0.00 | 81 | 1013.3 |
| 20260507134351 | 9 | 55 | 1.6 | 1.6 | 0.00 | 0.00 | 0.00 | 81 | 1013.3 |
| 20260507133847 | 9 | 61 | 1.6 | 1.6 | 0.00 | 0.00 | 0.00 | 80 | 1013.4 |
| 20260507133343 | 8 | 62 | 1.6 | 1.6 | 0.00 | 0.00 | 0.00 | 81 | 1013.3 |
| 20260507132842 | 9 | 58 | 1.6 | 1.6 | 0.00 | 0.00 | 0.00 | 81 | 1013.3 |
| 20260507132338 | 8 | 60 | 1.6 | 1.6 | 0.00 | 0.00 | 0.00 | 81 | 1013.1 |
| 20260507131835 | 8 | 64 | 0.0 | 0.0 | 0.00 | 0.00 | 0.00 | 82 | 1013.2 |
| 20260507131332 | 8 | 59 | 0.0 | 1.6 | 0.00 | 0.00 | 0.00 | 81 | 1013.1 |
| 20260507130829 | 8 | 53 | 1.6 | 1.6 | 0.00 | 0.00 | 0.00 | 82 | 1013.2 |
| 20260507130326 | 8 | 61 | 0.0 | 0.0 | 0.00 | 0.00 | 0.00 | 83 | 1013.1 |
| 20260507125825 | 8 | 60 | 0.0 | 1.6 | 0.00 | 0.00 | 0.00 | 82 | 1013.1 |
| 20260507125321 | 8 | 60 | 0.0 | 0.0 | 0.00 | 0.00 | 0.00 | 83 | 1013.1 |
| 20260507124819 | 7 | 60 | 0.0 | 0.0 | 0.00 | 0.00 | 0.00 | 84 | 1013.0 |
| 20260507124315 | 7 | 61 | 0.0 | 0.0 | 0.00 | 0.00 | 0.00 | 84 | 1013.1 |
| 20260507123814 | 7 | 61 | 0.0 | 0.0 | 0.00 | 0.00 | 0.00 | 84 | 1013.0 |
| 20260507123311 | 7 | 61 | 0.0 | 0.0 | 0.00 | 0.00 | 0.00 | 84 | 1013.0 |
| 20260507122806 | 7 | 48 | 1.6 | 1.6 | 0.00 | 0.00 | 0.00 | 85 | 1013.0 |
| 20260507122256 | 7 | 65 | 0.0 | 0.0 | 0.00 | 0.00 | 0.00 | 85 | 1012.9 |
| 20260507121752 | 7 | 62 | 0.0 | 0.0 | 0.00 | 0.00 | 0.00 | 83 | 1013.0 |
| 20260507121248 | 8 | 60 | 0.0 | 0.0 | 0.00 | 0.00 | 0.00 | 81 | 1012.8 |
| 20260507120744 | 8 | 64 | 0.0 | 0.0 | 0.00 | 0.00 | 0.00 | 80 | 1012.6 |
| 20260507120241 | 8 | 74 | 1.6 | 1.6 | 0.00 | 0.00 | 0.00 | 80 | 1012.6 |
| 20260507115737 | 8 | 76 | 1.6 | 1.6 | 0.00 | 0.00 | 0.00 | 79 | 1012.5 |
| 20260507115233 | 8 | 3 | 3.2 | 3.2 | 0.00 | 0.00 | 0.00 | 80 | 1012.8 |
| 20260507114729 | 8 | 63 | 0.0 | 0.0 | 0.00 | 0.00 | 0.00 | 80 | 1012.6 |
| 20260507114227 | 9 | 63 | 0.0 | 0.0 | 0.00 | 0.00 | 0.00 | 78 | 1012.5 |
| 20260507113724 | 9 | 67 | 0.0 | 0.0 | 0.00 | 0.00 | 0.00 | 77 | 1012.5 |
| 20260507113221 | 9 | 54 | 1.6 | 1.6 | 0.00 | 0.00 | 0.00 | 77 | 1012.6 |
| 20260507112718 | 8 | 64 | 1.6 | 1.6 | 0.00 | 0.00 | 0.00 | 78 | 1012.4 |
| 20260507112216 | 9 | 61 | 0.0 | 0.0 | 0.00 | 0.00 | 0.00 | 76 | 1012.6 |
| 20260507111713 | 9 | 64 | 0.0 | 0.0 | 0.00 | 0.00 | 0.00 | 76 | 1012.4 |
| 20260507111210 | 9 | 63 | 0.0 | 0.0 | 0.00 | 0.00 | 0.00 | 76 | 1012.3 |
| 20260507110705 | 10 | 64 | 0.0 | 0.0 | 0.00 | 0.00 | 0.00 | 74 | 1012.3 |
| 20260507110202 | 10 | 66 | 1.6 | 1.6 | 0.00 | 0.00 | 0.00 | 72 | 1012.3 |
| 20260507105659 | 9 | 58 | 1.6 | 1.6 | 0.00 | 0.00 | 0.00 | 76 | 1012.2 |
| 20260507105155 | 8 | 62 | 0.0 | 0.0 | 0.00 | 0.00 | 0.00 | 78 | 1012.2 |
| 20260507104653 | 8 | 65 | 0.0 | 1.6 | 0.00 | 0.00 | 0.00 | 80 | 1012.3 |
| 20260507104149 | 8 | 62 | 0.0 | 1.6 | 0.00 | 0.00 | 0.00 | 78 | 1012.2 |
| 20260507103645 | 8 | 69 | 0.0 | 0.0 | 0.00 | 0.00 | 0.00 | 80 | 1011.9 |
| 20260507103142 | 8 | 61 | 0.0 | 1.6 | 0.00 | 0.00 | 0.00 | 78 | 1011.9 |
| 20260507102638 | 8 | 66 | 0.0 | 0.0 | 0.00 | 0.00 | 0.00 | 79 | 1012.1 |
| 20260507102134 | 9 | 65 | 0.0 | 0.0 | 0.00 | 0.00 | 0.00 | 77 | 1011.8 |
| 20260507101630 | 10 | 52 | 1.6 | 1.6 | 0.00 | 0.00 | 0.00 | 77 | 1011.8 |
| 20260507101126 | 10 | 45 | 3.2 | 3.2 | 0.00 | 0.00 | 0.00 | 76 | 1011.8 |
| 20260507100624 | 10 | 64 | 0.0 | 0.0 | 0.00 | 0.00 | 0.00 | 76 | 1011.9 |
| 20260507100122 | 10 | 63 | 0.0 | 0.0 | 0.00 | 0.00 | 0.00 | 75 | 1011.5 |
| 20260507095620 | 10 | 59 | 0.0 | 0.0 | 0.00 | 0.00 | 0.00 | 76 | 1011.8 |
| 20260507095116 | 9 | 62 | 1.6 | 1.6 | 0.00 | 0.00 | 0.00 | 78 | 1011.4 |
| 20260507094612 | 8 | 63 | 0.0 | 0.0 | 0.00 | 0.00 | 0.00 | 80 | 1011.7 |
| 20260507094109 | 10 | 62 | 0.0 | 0.0 | 0.00 | 0.00 | 0.00 | 77 | 1011.4 |
| 20260507093607 | 10 | 64 | 0.0 | 0.0 | 0.00 | 0.00 | 0.00 | 77 | 1011.7 |
| 20260507093106 | 9 | 62 | 1.6 | 1.6 | 0.00 | 0.00 | 0.00 | 78 | 1011.5 |
| 20260507092601 | 10 | 61 | 0.0 | 1.6 | 0.00 | 0.00 | 0.00 | 75 | 1011.3 |
| 20260507092058 | 10 | 63 | 0.0 | 1.6 | 0.00 | 0.00 | 0.00 | 77 | 1011.2 |
| 20260507091555 | 10 | 67 | 0.0 | 0.0 | 0.00 | 0.00 | 0.00 | 77 | 1011.3 |
| 20260507091051 | 10 | 64 | 0.0 | 0.0 | 0.00 | 0.00 | 0.00 | 77 | 1011.4 |
| 20260507090546 | 10 | 60 | 0.0 | 1.6 | 0.00 | 0.00 | 0.00 | 77 | 1011.3 |
| 20260507090038 | 10 | 60 | 0.0 | 0.0 | 0.00 | 0.00 | 0.00 | 76 | 1011.2 |
| 20260507085535 | 11 | 63 | 0.0 | 0.0 | 0.00 | 0.00 | 0.00 | 73 | 1011.3 |
| 20260507085032 | 11 | 64 | 0.0 | 0.0 | 0.00 | 0.00 | 0.00 | 71 | 1011.2 |
| 20260507084528 | 11 | 64 | 0.0 | 0.0 | 0.00 | 0.00 | 0.00 | 71 | 1011.3 |
| 20260507084026 | 11 | 63 | 0.0 | 0.0 | 0.00 | 0.00 | 0.00 | 71 | 1011.1 |
| 20260507083521 | 11 | 62 | 0.0 | 0.0 | 0.00 | 0.00 | 0.00 | 70 | 1011.2 |
| 20260507083019 | 12 | 61 | 0.0 | 0.0 | 0.00 | 0.00 | 0.00 | 69 | 1011.4 |
| 20260507082515 | 12 | 65 | 0.0 | 0.0 | 0.00 | 0.00 | 0.00 | 69 | 1011.4 |
| 20260507082011 | 12 | 64 | 0.0 | 0.0 | 0.00 | 0.00 | 0.00 | 69 | 1011.7 |
| 20260507081508 | 12 | 83 | 0.0 | 1.6 | 0.00 | 0.00 | 0.00 | 68 | 1011.4 |
| 20260507081005 | 12 | 62 | 0.0 | 0.0 | 0.00 | 0.00 | 0.00 | 67 | 1011.4 |
| 20260507080500 | 13 | 77 | 1.6 | 1.6 | 0.00 | 0.00 | 0.00 | 65 | 1011.7 |
| 20260507075956 | 13 | 64 | 0.0 | 0.0 | 0.00 | 0.00 | 0.00 | 64 | 1011.7 |
| 20260507075452 | 13 | 63 | 0.0 | 0.0 | 0.00 | 0.00 | 0.00 | 63 | 1011.4 |
| 20260507074949 | 13 | 68 | 1.6 | 1.6 | 0.00 | 0.00 | 0.00 | 62 | 1011.3 |
| 20260507074446 | 13 | 62 | 0.0 | 0.0 | 0.00 | 0.00 | 0.00 | 63 | 1011.2 |
| 20260507073944 | 13 | 63 | 0.0 | 0.0 | 0.00 | 0.00 | 0.00 | 63 | 1011.4 |
| 20260507073440 | 13 | 65 | 0.0 | 0.0 | 0.00 | 0.00 | 0.00 | 61 | 1011.3 |
| 20260507072936 | 13 | 64 | 0.0 | 1.6 | 0.00 | 0.00 | 0.00 | 62 | 1011.2 |
| 20260507072433 | 13 | 63 | 0.0 | 0.0 | 0.00 | 0.00 | 0.00 | 62 | 1011.3 |
| 20260507071926 | 14 | 67 | 0.0 | 0.0 | 0.00 | 0.00 | 0.00 | 61 | 1011.2 |
| 20260507071422 | 15 | 62 | 0.0 | 0.0 | 0.00 | 0.00 | 0.00 | 58 | 1011.4 |
| 20260507070918 | 15 | 53 | 0.0 | 1.6 | 0.00 | 0.00 | 0.00 | 56 | 1011.3 |
| 20260507070416 | 15 | 69 | 3.2 | 3.2 | 0.00 | 0.00 | 0.00 | 55 | 1011.2 |
| 20260507065913 | 15 | 49 | 3.2 | 4.8 | 0.00 | 0.00 | 0.00 | 54 | 1011.1 |
| 20260507065409 | 15 | 67 | 1.6 | 1.6 | 0.00 | 0.00 | 0.00 | 54 | 1011.3 |
| 20260507064906 | 16 | 67 | 0.0 | 0.0 | 0.00 | 0.00 | 0.00 | 53 | 1011.1 |
| 20260507064404 | 16 | 61 | 1.6 | 1.6 | 0.00 | 0.00 | 0.00 | 52 | 1011.1 |
| 20260507063857 | 16 | 63 | 0.0 | 0.0 | 0.00 | 0.00 | 0.00 | 52 | 1011.2 |
| 20260507063354 | 16 | 64 | 1.6 | 1.6 | 0.00 | 0.00 | 0.00 | 51 | 1011.1 |
| 20260507062850 | 17 | 65 | 1.6 | 1.6 | 0.00 | 0.00 | 0.00 | 48 | 1011.1 |
| 20260507062347 | 17 | 74 | 1.6 | 3.2 | 0.00 | 0.00 | 0.00 | 47 | 1011.3 |
| 20260507061845 | 17 | 63 | 3.2 | 3.2 | 0.00 | 0.00 | 0.00 | 47 | 1011.0 |
| 20260507061343 | 17 | 197 | 3.2 | 3.2 | 0.00 | 0.00 | 0.00 | 48 | 1011.1 |
| 20260507060841 | 17 | 247 | 6.4 | 9.7 | 0.00 | 0.00 | 0.00 | 48 | 1011.1 |
| 20260507060338 | 18 | 123 | 4.8 | 4.8 | 0.00 | 0.00 | 0.00 | 47 | 1011.2 |
| 20260507055835 | 17 | 38 | 4.8 | 8.0 | 0.00 | 0.00 | 0.00 | 46 | 1011.2 |
| 20260507055329 | 17 | 227 | 8.0 | 14.5 | 0.00 | 0.00 | 0.00 | 46 | 1011.1 |
| 20260507054826 | 17 | 59 | 0.0 | 1.6 | 0.00 | 0.00 | 0.00 | 46 | 1011.2 |
| 20260507054322 | 17 | 244 | 6.4 | 8.0 | 0.00 | 0.00 | 0.00 | 47 | 1011.3 |
| 20260507053820 | 17 | 241 | 6.4 | 8.0 | 0.00 | 0.00 | 0.00 | 45 | 1011.2 |
| 20260507053317 | 18 | 245 | 8.0 | 9.7 | 0.00 | 0.00 | 0.00 | 45 | 1011.2 |
| 20260507052816 | 17 | 222 | 4.8 | 8.0 | 0.00 | 0.00 | 0.00 | 45 | 1011.2 |
| 20260507052312 | 17 | 232 | 6.4 | 9.7 | 0.00 | 0.00 | 0.00 | 45 | 1011.3 |
| 20260507051810 | 17 | 59 | 1.6 | 3.2 | 0.00 | 0.00 | 0.00 | 47 | 1010.9 |
| 20260507051307 | 17 | 231 | 4.8 | 8.0 | 0.00 | 0.00 | 0.00 | 48 | 1011.0 |
| 20260507050804 | 17 | 27 | 3.2 | 3.2 | 0.00 | 0.00 | 0.00 | 48 | 1011.2 |
| 20260507050300 | 17 | 106 | 3.2 | 3.2 | 0.00 | 0.00 | 0.00 | 48 | 1011.2 |
| 20260507045757 | 17 | 78 | 1.6 | 3.2 | 0.00 | 0.00 | 0.00 | 48 | 1011.1 |
| 20260507045253 | 17 | 65 | 1.6 | 1.6 | 0.00 | 0.00 | 0.00 | 47 | 1011.1 |
| 20260507044751 | 17 | 58 | 3.2 | 3.2 | 0.00 | 0.00 | 0.00 | 49 | 1011.1 |
| 20260507044247 | 18 | 261 | 4.8 | 8.0 | 0.00 | 0.00 | 0.00 | 40 | 1010.9 |
| 20260507043743 | 18 | 248 | 6.4 | 9.7 | 0.00 | 0.00 | 0.00 | 39 | 1011.0 |
| 20260507043240 | 18 | 72 | 4.8 | 4.8 | 0.00 | 0.00 | 0.00 | 42 | 1011.1 |
| 20260507042736 | 18 | 38 | 4.8 | 4.8 | 0.00 | 0.00 | 0.00 | 41 | 1011.0 |
| 20260507042231 | 18 | 227 | 6.4 | 8.0 | 0.00 | 0.00 | 0.00 | 40 | 1010.9 |
| 20260507041730 | 18 | 78 | 0.0 | 1.6 | 0.00 | 0.00 | 0.00 | 42 | 1011.1 |
| 20260507041226 | 18 | 65 | 3.2 | 4.8 | 0.00 | 0.00 | 0.00 | 41 | 1011.0 |
| 20260507040723 | 17 | 231 | 4.8 | 8.0 | 0.00 | 0.00 | 0.00 | 43 | 1011.1 |
| 20260507040219 | 17 | 62 | 0.0 | 0.0 | 0.00 | 0.00 | 0.00 | 46 | 1010.9 |